sensor_id;sensor_type;location;lat;lon;timestamp;P1;durP1;ratioP1;P2;durP2;ratioP2
28774;SDS011;15926;51.348;6.596;2023-04-24T00:01:48;0.80;;;0.60;;
28774;SDS011;15926;51.348;6.596;2023-04-24T00:04:15;0.70;;;0.70;;
28774;SDS011;15926;51.348;6.596;2023-04-24T00:06:42;1.48;;;0.70;;
28774;SDS011;15926;51.348;6.596;2023-04-24T00:09:09;1.23;;;0.90;;
28774;SDS011;15926;51.348;6.596;2023-04-24T00:11:35;3.67;;;0.73;;
28774;SDS011;15926;51.348;6.596;2023-04-24T00:14:01;0.60;;;0.60;;
28774;SDS011;15926;51.348;6.596;2023-04-24T00:16:27;2.67;;;1.40;;
28774;SDS011;15926;51.348;6.596;2023-04-24T00:18:54;1.88;;;1.38;;
28774;SDS011;15926;51.348;6.596;2023-04-24T00:21:20;1.35;;;1.25;;
28774;SDS011;15926;51.348;6.596;2023-04-24T00:23:46;3.17;;;1.45;;
28774;SDS011;15926;51.348;6.596;2023-04-24T00:26:12;1.42;;;1.27;;
28774;SDS011;15926;51.348;6.596;2023-04-24T00:28:38;2.92;;;1.30;;
28774;SDS011;15926;51.348;6.596;2023-04-24T00:31:05;3.80;;;1.60;;
28774;SDS011;15926;51.348;6.596;2023-04-24T00:33:31;1.70;;;1.58;;
28774;SDS011;15926;51.348;6.596;2023-04-24T00:35:57;3.28;;;1.83;;
28774;SDS011;15926;51.348;6.596;2023-04-24T00:38:23;2.25;;;2.00;;
28774;SDS011;15926;51.348;6.596;2023-04-24T00:40:49;3.53;;;2.28;;
28774;SDS011;15926;51.348;6.596;2023-04-24T00:43:15;2.60;;;2.40;;
28774;SDS011;15926;51.348;6.596;2023-04-24T00:45:44;2.17;;;1.98;;
28774;SDS011;15926;51.348;6.596;2023-04-24T00:48:11;2.90;;;2.70;;
28774;SDS011;15926;51.348;6.596;2023-04-24T00:50:37;2.60;;;2.28;;
28774;SDS011;15926;51.348;6.596;2023-04-24T00:53:03;3.10;;;2.80;;
28774;SDS011;15926;51.348;6.596;2023-04-24T00:55:30;4.68;;;2.40;;
28774;SDS011;15926;51.348;6.596;2023-04-24T00:57:56;3.35;;;3.05;;
28774;SDS011;15926;51.348;6.596;2023-04-24T01:00:22;4.55;;;2.78;;
28774;SDS011;15926;51.348;6.596;2023-04-24T01:02:49;3.08;;;2.72;;
28774;SDS011;15926;51.348;6.596;2023-04-24T01:05:16;5.38;;;3.25;;
28774;SDS011;15926;51.348;6.596;2023-04-24T01:07:44;4.03;;;3.10;;
28774;SDS011;15926;51.348;6.596;2023-04-24T01:10:12;4.63;;;3.42;;
28774;SDS011;15926;51.348;6.596;2023-04-24T01:12:39;3.92;;;3.10;;
28774;SDS011;15926;51.348;6.596;2023-04-24T01:15:05;4.80;;;3.58;;
28774;SDS011;15926;51.348;6.596;2023-04-24T01:17:31;5.03;;;4.05;;
28774;SDS011;15926;51.348;6.596;2023-04-24T01:19:58;4.85;;;3.80;;
28774;SDS011;15926;51.348;6.596;2023-04-24T01:22:24;4.68;;;3.95;;
28774;SDS011;15926;51.348;6.596;2023-04-24T01:24:51;4.88;;;3.97;;
28774;SDS011;15926;51.348;6.596;2023-04-24T01:27:18;5.10;;;3.83;;
28774;SDS011;15926;51.348;6.596;2023-04-24T01:29:44;3.88;;;3.58;;
28774;SDS011;15926;51.348;6.596;2023-04-24T01:32:10;4.50;;;3.83;;
28774;SDS011;15926;51.348;6.596;2023-04-24T01:34:37;4.78;;;3.63;;
28774;SDS011;15926;51.348;6.596;2023-04-24T01:37:03;5.07;;;3.92;;
28774;SDS011;15926;51.348;6.596;2023-04-24T01:39:30;5.22;;;3.53;;
28774;SDS011;15926;51.348;6.596;2023-04-24T01:41:56;3.70;;;3.40;;
28774;SDS011;15926;51.348;6.596;2023-04-24T01:44:22;4.65;;;3.67;;
28774;SDS011;15926;51.348;6.596;2023-04-24T01:46:48;5.90;;;4.00;;
28774;SDS011;15926;51.348;6.596;2023-04-24T01:49:14;6.47;;;3.67;;
28774;SDS011;15926;51.348;6.596;2023-04-24T01:51:40;6.97;;;4.07;;
28774;SDS011;15926;51.348;6.596;2023-04-24T01:54:06;4.85;;;3.85;;
28774;SDS011;15926;51.348;6.596;2023-04-24T01:56:35;5.93;;;5.28;;
28774;SDS011;15926;51.348;6.596;2023-04-24T01:59:02;5.63;;;4.88;;
28774;SDS011;15926;51.348;6.596;2023-04-24T02:01:38;7.97;;;5.38;;
28774;SDS011;15926;51.348;6.596;2023-04-24T02:04:05;9.00;;;5.95;;
28774;SDS011;15926;51.348;6.596;2023-04-24T02:06:31;10.52;;;5.47;;
28774;SDS011;15926;51.348;6.596;2023-04-24T02:08:58;7.10;;;5.65;;
28774;SDS011;15926;51.348;6.596;2023-04-24T02:11:24;8.02;;;5.53;;
28774;SDS011;15926;51.348;6.596;2023-04-24T02:13:50;6.75;;;5.78;;
28774;SDS011;15926;51.348;6.596;2023-04-24T02:16:16;10.38;;;7.15;;
28774;SDS011;15926;51.348;6.596;2023-04-24T02:18:42;10.77;;;6.10;;
28774;SDS011;15926;51.348;6.596;2023-04-24T02:21:09;9.93;;;6.53;;
28774;SDS011;15926;51.348;6.596;2023-04-24T02:23:35;8.60;;;6.10;;
28774;SDS011;15926;51.348;6.596;2023-04-24T02:26:01;11.45;;;7.18;;
28774;SDS011;15926;51.348;6.596;2023-04-24T02:28:27;11.27;;;7.38;;
28774;SDS011;15926;51.348;6.596;2023-04-24T02:30:53;10.77;;;7.65;;
28774;SDS011;15926;51.348;6.596;2023-04-24T02:33:19;9.50;;;6.75;;
28774;SDS011;15926;51.348;6.596;2023-04-24T02:35:45;13.52;;;7.18;;
28774;SDS011;15926;51.348;6.596;2023-04-24T02:38:11;8.82;;;7.05;;
28774;SDS011;15926;51.348;6.596;2023-04-24T02:40:37;13.15;;;7.88;;
28774;SDS011;15926;51.348;6.596;2023-04-24T02:43:03;16.20;;;8.90;;
28774;SDS011;15926;51.348;6.596;2023-04-24T02:45:29;14.95;;;7.45;;
28774;SDS011;15926;51.348;6.596;2023-04-24T02:47:55;17.30;;;8.13;;
28774;SDS011;15926;51.348;6.596;2023-04-24T02:50:21;12.35;;;8.18;;
28774;SDS011;15926;51.348;6.596;2023-04-24T02:52:47;14.20;;;8.55;;
28774;SDS011;15926;51.348;6.596;2023-04-24T02:55:13;16.77;;;8.68;;
28774;SDS011;15926;51.348;6.596;2023-04-24T02:57:39;15.85;;;8.43;;
28774;SDS011;15926;51.348;6.596;2023-04-24T03:00:05;14.27;;;7.93;;
28774;SDS011;15926;51.348;6.596;2023-04-24T03:02:32;13.90;;;9.07;;
28774;SDS011;15926;51.348;6.596;2023-04-24T03:04:58;13.55;;;9.15;;
28774;SDS011;15926;51.348;6.596;2023-04-24T03:07:25;16.77;;;8.60;;
28774;SDS011;15926;51.348;6.596;2023-04-24T03:09:51;14.15;;;9.35;;
28774;SDS011;15926;51.348;6.596;2023-04-24T03:12:17;14.80;;;8.80;;
28774;SDS011;15926;51.348;6.596;2023-04-24T03:14:43;15.85;;;9.07;;
28774;SDS011;15926;51.348;6.596;2023-04-24T03:17:09;11.27;;;8.55;;
28774;SDS011;15926;51.348;6.596;2023-04-24T03:19:35;14.63;;;8.88;;
28774;SDS011;15926;51.348;6.596;2023-04-24T03:22:01;14.32;;;8.50;;
28774;SDS011;15926;51.348;6.596;2023-04-24T03:24:27;17.00;;;9.02;;
28774;SDS011;15926;51.348;6.596;2023-04-24T03:26:53;15.13;;;8.73;;
28774;SDS011;15926;51.348;6.596;2023-04-24T03:29:21;19.35;;;9.55;;
28774;SDS011;15926;51.348;6.596;2023-04-24T03:31:47;11.30;;;8.45;;
28774;SDS011;15926;51.348;6.596;2023-04-24T03:34:13;11.43;;;8.82;;
28774;SDS011;15926;51.348;6.596;2023-04-24T03:36:39;15.82;;;7.63;;
28774;SDS011;15926;51.348;6.596;2023-04-24T03:39:05;12.77;;;7.80;;
28774;SDS011;15926;51.348;6.596;2023-04-24T03:41:32;14.85;;;8.32;;
28774;SDS011;15926;51.348;6.596;2023-04-24T03:43:58;14.13;;;8.20;;
28774;SDS011;15926;51.348;6.596;2023-04-24T03:46:25;12.52;;;7.90;;
28774;SDS011;15926;51.348;6.596;2023-04-24T03:48:51;12.00;;;8.63;;
28774;SDS011;15926;51.348;6.596;2023-04-24T03:51:16;11.25;;;8.02;;
28774;SDS011;15926;51.348;6.596;2023-04-24T03:53:42;12.80;;;8.73;;
28774;SDS011;15926;51.348;6.596;2023-04-24T03:56:08;16.63;;;8.65;;
28774;SDS011;15926;51.348;6.596;2023-04-24T03:58:34;14.55;;;7.80;;
28774;SDS011;15926;51.348;6.596;2023-04-24T04:01:00;16.83;;;9.18;;
28774;SDS011;15926;51.348;6.596;2023-04-24T04:03:27;17.42;;;8.68;;
28774;SDS011;15926;51.348;6.596;2023-04-24T04:05:53;13.15;;;8.40;;
28774;SDS011;15926;51.348;6.596;2023-04-24T04:08:19;12.95;;;8.57;;
28774;SDS011;15926;51.348;6.596;2023-04-24T04:10:46;12.18;;;8.02;;
28774;SDS011;15926;51.348;6.596;2023-04-24T04:13:12;13.30;;;7.63;;
28774;SDS011;15926;51.348;6.596;2023-04-24T04:15:38;12.82;;;8.10;;
28774;SDS011;15926;51.348;6.596;2023-04-24T04:18:04;11.77;;;8.48;;
28774;SDS011;15926;51.348;6.596;2023-04-24T04:20:30;11.10;;;7.47;;
28774;SDS011;15926;51.348;6.596;2023-04-24T04:22:56;12.40;;;8.15;;
28774;SDS011;15926;51.348;6.596;2023-04-24T04:25:22;10.85;;;7.30;;
28774;SDS011;15926;51.348;6.596;2023-04-24T04:27:48;13.10;;;7.47;;
28774;SDS011;15926;51.348;6.596;2023-04-24T04:30:16;11.75;;;7.40;;
28774;SDS011;15926;51.348;6.596;2023-04-24T04:32:43;12.02;;;7.10;;
28774;SDS011;15926;51.348;6.596;2023-04-24T04:35:09;12.88;;;6.90;;
28774;SDS011;15926;51.348;6.596;2023-04-24T04:37:35;11.35;;;7.43;;
28774;SDS011;15926;51.348;6.596;2023-04-24T04:40:01;11.23;;;6.97;;
28774;SDS011;15926;51.348;6.596;2023-04-24T04:42:31;7.25;;;6.50;;
28774;SDS011;15926;51.348;6.596;2023-04-24T04:44:59;10.68;;;7.18;;
28774;SDS011;15926;51.348;6.596;2023-04-24T04:47:25;9.32;;;7.35;;
28774;SDS011;15926;51.348;6.596;2023-04-24T04:49:51;11.10;;;6.95;;
28774;SDS011;15926;51.348;6.596;2023-04-24T04:52:18;10.60;;;6.88;;
28774;SDS011;15926;51.348;6.596;2023-04-24T04:54:44;9.57;;;7.03;;
28774;SDS011;15926;51.348;6.596;2023-04-24T04:57:11;11.68;;;6.05;;
28774;SDS011;15926;51.348;6.596;2023-04-24T04:59:37;9.20;;;6.57;;
28774;SDS011;15926;51.348;6.596;2023-04-24T05:02:03;9.10;;;6.38;;
28774;SDS011;15926;51.348;6.596;2023-04-24T05:04:29;10.75;;;8.13;;
28774;SDS011;15926;51.348;6.596;2023-04-24T05:06:56;11.48;;;8.13;;
28774;SDS011;15926;51.348;6.596;2023-04-24T05:09:22;18.25;;;7.40;;
28774;SDS011;15926;51.348;6.596;2023-04-24T05:11:48;9.85;;;7.90;;
28774;SDS011;15926;51.348;6.596;2023-04-24T05:14:14;13.07;;;9.20;;
28774;SDS011;15926;51.348;6.596;2023-04-24T05:16:40;13.32;;;7.93;;
28774;SDS011;15926;51.348;6.596;2023-04-24T05:19:06;13.95;;;8.65;;
28774;SDS011;15926;51.348;6.596;2023-04-24T05:21:32;10.63;;;7.93;;
28774;SDS011;15926;51.348;6.596;2023-04-24T05:23:58;13.18;;;8.70;;
28774;SDS011;15926;51.348;6.596;2023-04-24T05:26:24;10.13;;;8.13;;
28774;SDS011;15926;51.348;6.596;2023-04-24T05:28:50;11.40;;;7.60;;
28774;SDS011;15926;51.348;6.596;2023-04-24T05:31:16;10.98;;;8.23;;
28774;SDS011;15926;51.348;6.596;2023-04-24T05:33:42;9.80;;;7.00;;
28774;SDS011;15926;51.348;6.596;2023-04-24T05:36:08;12.15;;;8.18;;
28774;SDS011;15926;51.348;6.596;2023-04-24T05:38:35;10.30;;;7.53;;
28774;SDS011;15926;51.348;6.596;2023-04-24T05:41:01;12.05;;;7.88;;
28774;SDS011;15926;51.348;6.596;2023-04-24T05:43:27;12.73;;;7.32;;
28774;SDS011;15926;51.348;6.596;2023-04-24T05:45:53;10.57;;;7.43;;
28774;SDS011;15926;51.348;6.596;2023-04-24T05:48:19;10.15;;;7.65;;
28774;SDS011;15926;51.348;6.596;2023-04-24T05:50:45;7.95;;;6.93;;
28774;SDS011;15926;51.348;6.596;2023-04-24T05:53:12;8.38;;;6.70;;
28774;SDS011;15926;51.348;6.596;2023-04-24T05:55:38;10.05;;;6.85;;
28774;SDS011;15926;51.348;6.596;2023-04-24T05:58:05;9.45;;;7.45;;
28774;SDS011;15926;51.348;6.596;2023-04-24T06:00:31;10.27;;;7.82;;
28774;SDS011;15926;51.348;6.596;2023-04-24T06:02:58;11.00;;;7.30;;
28774;SDS011;15926;51.348;6.596;2023-04-24T06:05:24;9.65;;;7.35;;
28774;SDS011;15926;51.348;6.596;2023-04-24T06:07:50;9.68;;;7.30;;
28774;SDS011;15926;51.348;6.596;2023-04-24T06:10:16;9.98;;;6.75;;
28774;SDS011;15926;51.348;6.596;2023-04-24T06:12:42;6.70;;;5.88;;
28774;SDS011;15926;51.348;6.596;2023-04-24T06:15:08;9.73;;;5.82;;
28774;SDS011;15926;51.348;6.596;2023-04-24T06:17:34;7.05;;;5.43;;
28774;SDS011;15926;51.348;6.596;2023-04-24T06:20:00;6.10;;;5.50;;
28774;SDS011;15926;51.348;6.596;2023-04-24T06:22:29;5.70;;;5.10;;
28774;SDS011;15926;51.348;6.596;2023-04-24T06:24:55;7.50;;;5.68;;
28774;SDS011;15926;51.348;6.596;2023-04-24T06:27:21;7.57;;;5.75;;
28774;SDS011;15926;51.348;6.596;2023-04-24T06:29:47;5.82;;;4.78;;
28774;SDS011;15926;51.348;6.596;2023-04-24T06:32:19;6.28;;;4.90;;
28774;SDS011;15926;51.348;6.596;2023-04-24T06:34:45;6.40;;;4.82;;
28774;SDS011;15926;51.348;6.596;2023-04-24T06:39:41;5.20;;;4.47;;
28774;SDS011;15926;51.348;6.596;2023-04-24T06:42:07;9.60;;;5.03;;
28774;SDS011;15926;51.348;6.596;2023-04-24T06:44:34;4.93;;;4.28;;
28774;SDS011;15926;51.348;6.596;2023-04-24T06:47:05;4.88;;;4.18;;
28774;SDS011;15926;51.348;6.596;2023-04-24T06:49:32;5.35;;;4.72;;
28774;SDS011;15926;51.348;6.596;2023-04-24T06:51:58;5.20;;;4.35;;
28774;SDS011;15926;51.348;6.596;2023-04-24T06:54:24;10.07;;;4.90;;
28774;SDS011;15926;51.348;6.596;2023-04-24T06:56:50;4.97;;;4.38;;
28774;SDS011;15926;51.348;6.596;2023-04-24T06:59:17;3.45;;;3.15;;
28774;SDS011;15926;51.348;6.596;2023-04-24T07:01:43;3.42;;;3.08;;
28774;SDS011;15926;51.348;6.596;2023-04-24T07:04:09;3.45;;;2.47;;
28774;SDS011;15926;51.348;6.596;2023-04-24T07:06:36;4.57;;;2.28;;
28774;SDS011;15926;51.348;6.596;2023-04-24T07:09:04;1.55;;;1.45;;
28774;SDS011;15926;51.348;6.596;2023-04-24T07:11:30;1.60;;;1.50;;
28774;SDS011;15926;51.348;6.596;2023-04-24T07:13:59;2.22;;;1.20;;
28774;SDS011;15926;51.348;6.596;2023-04-24T07:18:55;0.90;;;0.70;;
28774;SDS011;15926;51.348;6.596;2023-04-24T07:21:21;2.53;;;0.98;;
28774;SDS011;15926;51.348;6.596;2023-04-24T07:23:47;0.68;;;0.68;;
28774;SDS011;15926;51.348;6.596;2023-04-24T07:26:13;0.50;;;0.50;;
28774;SDS011;15926;51.348;6.596;2023-04-24T07:28:39;0.50;;;0.50;;
28774;SDS011;15926;51.348;6.596;2023-04-24T07:31:06;0.57;;;0.50;;
28774;SDS011;15926;51.348;6.596;2023-04-24T07:33:32;0.88;;;0.70;;
28774;SDS011;15926;51.348;6.596;2023-04-24T07:35:58;1.05;;;0.70;;
28774;SDS011;15926;51.348;6.596;2023-04-24T07:38:24;0.77;;;0.50;;
28774;SDS011;15926;51.348;6.596;2023-04-24T07:40:50;1.63;;;0.50;;
28774;SDS011;15926;51.348;6.596;2023-04-24T07:43:17;0.52;;;0.50;;
28774;SDS011;15926;51.348;6.596;2023-04-24T07:45:43;0.85;;;0.80;;
28774;SDS011;15926;51.348;6.596;2023-04-24T07:48:09;2.67;;;0.65;;
28774;SDS011;15926;51.348;6.596;2023-04-24T07:50:35;0.63;;;0.63;;
28774;SDS011;15926;51.348;6.596;2023-04-24T07:53:01;2.03;;;0.77;;
28774;SDS011;15926;51.348;6.596;2023-04-24T07:55:27;2.05;;;0.77;;
28774;SDS011;15926;51.348;6.596;2023-04-24T07:57:53;1.30;;;0.88;;
28774;SDS011;15926;51.348;6.596;2023-04-24T08:00:19;1.42;;;1.20;;
28774;SDS011;15926;51.348;6.596;2023-04-24T08:02:45;1.30;;;1.20;;
28774;SDS011;15926;51.348;6.596;2023-04-24T08:05:11;1.58;;;0.70;;
28774;SDS011;15926;51.348;6.596;2023-04-24T08:07:37;0.70;;;0.70;;
28774;SDS011;15926;51.348;6.596;2023-04-24T08:10:04;1.83;;;1.70;;
28774;SDS011;15926;51.348;6.596;2023-04-24T08:12:30;1.73;;;1.27;;
28774;SDS011;15926;51.348;6.596;2023-04-24T08:14:56;3.53;;;2.10;;
28774;SDS011;15926;51.348;6.596;2023-04-24T08:17:22;1.60;;;1.00;;
28774;SDS011;15926;51.348;6.596;2023-04-24T08:19:48;1.55;;;1.40;;
28774;SDS011;15926;51.348;6.596;2023-04-24T08:22:16;2.03;;;1.40;;
28774;SDS011;15926;51.348;6.596;2023-04-24T08:24:42;5.05;;;2.92;;
28774;SDS011;15926;51.348;6.596;2023-04-24T08:27:08;3.17;;;1.73;;
28774;SDS011;15926;51.348;6.596;2023-04-24T08:29:35;2.15;;;1.80;;
28774;SDS011;15926;51.348;6.596;2023-04-24T08:32:01;2.28;;;1.70;;
28774;SDS011;15926;51.348;6.596;2023-04-24T08:34:27;2.63;;;1.88;;
28774;SDS011;15926;51.348;6.596;2023-04-24T08:36:53;2.38;;;1.80;;
28774;SDS011;15926;51.348;6.596;2023-04-24T08:39:19;2.72;;;2.10;;
28774;SDS011;15926;51.348;6.596;2023-04-24T08:41:45;2.08;;;1.63;;
28774;SDS011;15926;51.348;6.596;2023-04-24T08:44:14;1.00;;;0.90;;
28774;SDS011;15926;51.348;6.596;2023-04-24T08:46:41;1.20;;;1.10;;
28774;SDS011;15926;51.348;6.596;2023-04-24T08:49:08;1.50;;;1.40;;
28774;SDS011;15926;51.348;6.596;2023-04-24T08:51:36;2.55;;;2.05;;
28774;SDS011;15926;51.348;6.596;2023-04-24T08:54:02;4.95;;;3.38;;
28774;SDS011;15926;51.348;6.596;2023-04-24T08:56:28;5.85;;;3.30;;
28774;SDS011;15926;51.348;6.596;2023-04-24T08:58:56;3.92;;;3.50;;
28774;SDS011;15926;51.348;6.596;2023-04-24T09:01:22;5.85;;;3.47;;
28774;SDS011;15926;51.348;6.596;2023-04-24T09:03:49;6.35;;;3.33;;
28774;SDS011;15926;51.348;6.596;2023-04-24T09:06:16;4.47;;;3.85;;
28774;SDS011;15926;51.348;6.596;2023-04-24T09:08:43;5.65;;;4.82;;
28774;SDS011;15926;51.348;6.596;2023-04-24T09:11:10;6.35;;;4.45;;
28774;SDS011;15926;51.348;6.596;2023-04-24T09:13:37;7.78;;;3.78;;
28774;SDS011;15926;51.348;6.596;2023-04-24T09:16:03;5.15;;;4.18;;
28774;SDS011;15926;51.348;6.596;2023-04-24T09:18:29;5.43;;;4.22;;
28774;SDS011;15926;51.348;6.596;2023-04-24T09:23:34;4.38;;;3.50;;
28774;SDS011;15926;51.348;6.596;2023-04-24T09:26:01;8.70;;;3.67;;
28774;SDS011;15926;51.348;6.596;2023-04-24T09:28:31;7.18;;;4.10;;
28774;SDS011;15926;51.348;6.596;2023-04-24T09:31:11;5.35;;;4.45;;
28774;SDS011;15926;51.348;6.596;2023-04-24T09:33:39;8.63;;;4.93;;
28774;SDS011;15926;51.348;6.596;2023-04-24T09:36:05;11.25;;;5.03;;
28774;SDS011;15926;51.348;6.596;2023-04-24T09:38:32;6.28;;;4.50;;
28774;SDS011;15926;51.348;6.596;2023-04-24T09:41:02;10.70;;;5.32;;
28774;SDS011;15926;51.348;6.596;2023-04-24T09:43:28;8.18;;;4.85;;
28774;SDS011;15926;51.348;6.596;2023-04-24T09:45:55;6.40;;;4.10;;
28774;SDS011;15926;51.348;6.596;2023-04-24T09:48:35;8.68;;;4.43;;
28774;SDS011;15926;51.348;6.596;2023-04-24T09:51:02;6.88;;;4.05;;
28774;SDS011;15926;51.348;6.596;2023-04-24T09:53:28;12.02;;;3.63;;
28774;SDS011;15926;51.348;6.596;2023-04-24T09:55:55;12.20;;;3.88;;
28774;SDS011;15926;51.348;6.596;2023-04-24T09:58:25;7.93;;;3.35;;
28774;SDS011;15926;51.348;6.596;2023-04-24T10:00:53;7.82;;;3.42;;
28774;SDS011;15926;51.348;6.596;2023-04-24T10:03:19;4.88;;;3.15;;
28774;SDS011;15926;51.348;6.596;2023-04-24T10:05:46;5.28;;;2.95;;
28774;SDS011;15926;51.348;6.596;2023-04-24T10:08:13;10.30;;;4.38;;
28774;SDS011;15926;51.348;6.596;2023-04-24T10:10:43;4.95;;;3.08;;
28774;SDS011;15926;51.348;6.596;2023-04-24T10:13:12;8.20;;;2.78;;
28774;SDS011;15926;51.348;6.596;2023-04-24T10:15:40;8.88;;;2.50;;
28774;SDS011;15926;51.348;6.596;2023-04-24T10:18:07;8.60;;;3.22;;
28774;SDS011;15926;51.348;6.596;2023-04-24T10:20:35;7.43;;;2.67;;
28774;SDS011;15926;51.348;6.596;2023-04-24T10:23:02;8.10;;;2.70;;
28774;SDS011;15926;51.348;6.596;2023-04-24T10:25:29;5.38;;;2.35;;
28774;SDS011;15926;51.348;6.596;2023-04-24T10:27:56;5.88;;;3.08;;
28774;SDS011;15926;51.348;6.596;2023-04-24T10:30:24;9.00;;;2.40;;
28774;SDS011;15926;51.348;6.596;2023-04-24T10:32:51;12.35;;;2.60;;
28774;SDS011;15926;51.348;6.596;2023-04-24T10:35:17;9.43;;;3.00;;
28774;SDS011;15926;51.348;6.596;2023-04-24T10:38:18;7.88;;;3.50;;
28774;SDS011;15926;51.348;6.596;2023-04-24T10:40:36;6.95;;;3.53;;
28774;SDS011;15926;51.348;6.596;2023-04-24T10:43:03;7.57;;;3.55;;
28774;SDS011;15926;51.348;6.596;2023-04-24T10:45:32;6.47;;;3.03;;
28774;SDS011;15926;51.348;6.596;2023-04-24T10:47:59;8.38;;;3.28;;
28774;SDS011;15926;51.348;6.596;2023-04-24T10:50:27;13.38;;;3.88;;
28774;SDS011;15926;51.348;6.596;2023-04-24T10:52:54;7.05;;;3.45;;
28774;SDS011;15926;51.348;6.596;2023-04-24T10:55:43;9.43;;;3.50;;
28774;SDS011;15926;51.348;6.596;2023-04-24T10:58:10;13.88;;;4.30;;
28774;SDS011;15926;51.348;6.596;2023-04-24T11:00:37;13.38;;;4.78;;
28774;SDS011;15926;51.348;6.596;2023-04-24T11:03:22;8.65;;;3.60;;
28774;SDS011;15926;51.348;6.596;2023-04-24T11:05:49;10.07;;;3.83;;
28774;SDS011;15926;51.348;6.596;2023-04-24T11:08:21;5.10;;;3.25;;
28774;SDS011;15926;51.348;6.596;2023-04-24T11:10:54;8.13;;;3.58;;
28774;SDS011;15926;51.348;6.596;2023-04-24T11:13:24;8.35;;;3.30;;
28774;SDS011;15926;51.348;6.596;2023-04-24T11:18:38;9.63;;;3.22;;
28774;SDS011;15926;51.348;6.596;2023-04-24T11:21:16;8.63;;;3.10;;
28774;SDS011;15926;51.348;6.596;2023-04-24T11:23:42;11.45;;;3.30;;
28774;SDS011;15926;51.348;6.596;2023-04-24T11:26:12;9.45;;;2.53;;
28774;SDS011;15926;51.348;6.596;2023-04-24T11:28:48;5.85;;;2.30;;
28774;SDS011;15926;51.348;6.596;2023-04-24T11:31:34;4.35;;;2.40;;
28774;SDS011;15926;51.348;6.596;2023-04-24T11:34:11;4.80;;;1.73;;
28774;SDS011;15926;51.348;6.596;2023-04-24T11:36:39;9.07;;;2.30;;
28774;SDS011;15926;51.348;6.596;2023-04-24T11:39:05;4.43;;;2.15;;
28774;SDS011;15926;51.348;6.596;2023-04-24T11:41:32;4.40;;;1.83;;
28774;SDS011;15926;51.348;6.596;2023-04-24T11:43:58;6.68;;;2.28;;
28774;SDS011;15926;51.348;6.596;2023-04-24T11:46:28;7.57;;;1.95;;
28774;SDS011;15926;51.348;6.596;2023-04-24T11:48:56;2.80;;;1.67;;
28774;SDS011;15926;51.348;6.596;2023-04-24T11:51:23;6.80;;;2.17;;
28774;SDS011;15926;51.348;6.596;2023-04-24T11:53:50;5.50;;;1.85;;
28774;SDS011;15926;51.348;6.596;2023-04-24T11:56:20;4.63;;;2.08;;
28774;SDS011;15926;51.348;6.596;2023-04-24T11:58:47;5.80;;;1.85;;
28774;SDS011;15926;51.348;6.596;2023-04-24T12:01:13;3.70;;;2.15;;
28774;SDS011;15926;51.348;6.596;2023-04-24T12:03:39;7.82;;;2.10;;
28774;SDS011;15926;51.348;6.596;2023-04-24T12:06:09;4.43;;;2.13;;
28774;SDS011;15926;51.348;6.596;2023-04-24T12:08:36;3.95;;;1.90;;
28774;SDS011;15926;51.348;6.596;2023-04-24T12:11:02;4.53;;;2.00;;
28774;SDS011;15926;51.348;6.596;2023-04-24T12:13:28;5.70;;;1.55;;
28774;SDS011;15926;51.348;6.596;2023-04-24T12:15:56;7.97;;;2.25;;
28774;SDS011;15926;51.348;6.596;2023-04-24T12:18:22;4.07;;;1.48;;
28774;SDS011;15926;51.348;6.596;2023-04-24T12:20:48;4.88;;;1.65;;
28774;SDS011;15926;51.348;6.596;2023-04-24T12:23:14;4.40;;;1.50;;
28774;SDS011;15926;51.348;6.596;2023-04-24T12:25:41;4.97;;;1.88;;
28774;SDS011;15926;51.348;6.596;2023-04-24T12:28:11;3.90;;;1.75;;
28774;SDS011;15926;51.348;6.596;2023-04-24T12:30:42;6.28;;;1.52;;
28774;SDS011;15926;51.348;6.596;2023-04-24T12:33:09;3.42;;;1.40;;
28774;SDS011;15926;51.348;6.596;2023-04-24T12:35:36;4.45;;;1.50;;
28774;SDS011;15926;51.348;6.596;2023-04-24T12:38:05;4.45;;;1.30;;
28774;SDS011;15926;51.348;6.596;2023-04-24T12:40:33;6.00;;;1.27;;
28774;SDS011;15926;51.348;6.596;2023-04-24T12:42:59;1.95;;;1.08;;
28774;SDS011;15926;51.348;6.596;2023-04-24T12:45:25;5.80;;;1.20;;
28774;SDS011;15926;51.348;6.596;2023-04-24T12:47:52;4.10;;;1.20;;
28774;SDS011;15926;51.348;6.596;2023-04-24T12:50:19;1.70;;;1.08;;
28774;SDS011;15926;51.348;6.596;2023-04-24T12:52:45;5.15;;;1.33;;
28774;SDS011;15926;51.348;6.596;2023-04-24T12:55:11;4.05;;;0.88;;
28774;SDS011;15926;51.348;6.596;2023-04-24T12:57:38;0.90;;;0.70;;
28774;SDS011;15926;51.348;6.596;2023-04-24T13:00:05;2.13;;;1.10;;
28774;SDS011;15926;51.348;6.596;2023-04-24T13:02:31;4.55;;;0.80;;
28774;SDS011;15926;51.348;6.596;2023-04-24T13:05:00;4.20;;;1.00;;
28774;SDS011;15926;51.348;6.596;2023-04-24T13:07:26;3.15;;;1.00;;
28774;SDS011;15926;51.348;6.596;2023-04-24T13:09:53;3.78;;;1.15;;
28774;SDS011;15926;51.348;6.596;2023-04-24T13:12:19;1.38;;;1.02;;
28774;SDS011;15926;51.348;6.596;2023-04-24T13:14:46;3.20;;;0.73;;
28774;SDS011;15926;51.348;6.596;2023-04-24T13:17:12;1.88;;;0.80;;
28774;SDS011;15926;51.348;6.596;2023-04-24T13:19:40;1.63;;;0.98;;
28774;SDS011;15926;51.348;6.596;2023-04-24T13:22:06;2.15;;;0.80;;
28774;SDS011;15926;51.348;6.596;2023-04-24T13:24:32;3.92;;;0.80;;
28774;SDS011;15926;51.348;6.596;2023-04-24T13:26:58;2.10;;;0.85;;
28774;SDS011;15926;51.348;6.596;2023-04-24T13:29:25;1.52;;;0.68;;
28774;SDS011;15926;51.348;6.596;2023-04-24T13:31:52;2.20;;;0.70;;
28774;SDS011;15926;51.348;6.596;2023-04-24T13:34:22;2.15;;;0.70;;
28774;SDS011;15926;51.348;6.596;2023-04-24T13:36:49;0.80;;;0.50;;
28774;SDS011;15926;51.348;6.596;2023-04-24T13:39:16;0.60;;;0.50;;
28774;SDS011;15926;51.348;6.596;2023-04-24T13:41:42;1.45;;;0.70;;
28774;SDS011;15926;51.348;6.596;2023-04-24T13:44:08;0.65;;;0.50;;
28774;SDS011;15926;51.348;6.596;2023-04-24T13:46:34;1.30;;;0.68;;
28774;SDS011;15926;51.348;6.596;2023-04-24T13:49:01;0.73;;;0.73;;
28774;SDS011;15926;51.348;6.596;2023-04-24T13:51:28;0.82;;;0.70;;
28774;SDS011;15926;51.348;6.596;2023-04-24T13:53:54;2.92;;;0.65;;
28774;SDS011;15926;51.348;6.596;2023-04-24T13:56:20;3.15;;;0.70;;
28774;SDS011;15926;51.348;6.596;2023-04-24T13:58:47;1.05;;;0.60;;
28774;SDS011;15926;51.348;6.596;2023-04-24T14:01:13;3.30;;;0.70;;
28774;SDS011;15926;51.348;6.596;2023-04-24T14:03:40;1.25;;;0.50;;
28774;SDS011;15926;51.348;6.596;2023-04-24T14:06:07;2.58;;;0.90;;
28774;SDS011;15926;51.348;6.596;2023-04-24T14:08:33;2.25;;;0.80;;
28774;SDS011;15926;51.348;6.596;2023-04-24T14:10:59;2.58;;;0.82;;
28774;SDS011;15926;51.348;6.596;2023-04-24T14:13:25;2.47;;;0.80;;
28774;SDS011;15926;51.348;6.596;2023-04-24T14:15:51;1.15;;;0.77;;
28774;SDS011;15926;51.348;6.596;2023-04-24T14:18:18;1.45;;;0.70;;
28774;SDS011;15926;51.348;6.596;2023-04-24T14:20:44;1.90;;;0.70;;
28774;SDS011;15926;51.348;6.596;2023-04-24T14:23:10;3.35;;;0.70;;
28774;SDS011;15926;51.348;6.596;2023-04-24T14:25:36;2.65;;;1.23;;
28774;SDS011;15926;51.348;6.596;2023-04-24T14:28:02;1.85;;;0.60;;
28774;SDS011;15926;51.348;6.596;2023-04-24T14:30:28;1.10;;;0.68;;
28774;SDS011;15926;51.348;6.596;2023-04-24T14:32:54;2.50;;;0.80;;
28774;SDS011;15926;51.348;6.596;2023-04-24T14:35:20;3.13;;;0.60;;
28774;SDS011;15926;51.348;6.596;2023-04-24T14:37:46;1.50;;;0.98;;
28774;SDS011;15926;51.348;6.596;2023-04-24T14:40:13;3.65;;;1.08;;
28774;SDS011;15926;51.348;6.596;2023-04-24T14:42:39;1.02;;;0.70;;
28774;SDS011;15926;51.348;6.596;2023-04-24T14:45:05;1.42;;;0.80;;
28774;SDS011;15926;51.348;6.596;2023-04-24T14:47:32;2.40;;;1.17;;
28774;SDS011;15926;51.348;6.596;2023-04-24T14:49:58;1.63;;;0.80;;
28774;SDS011;15926;51.348;6.596;2023-04-24T14:52:25;4.18;;;0.85;;